Time;durP1;ratioP1;P1;durP2;ratioP2;P2;SDS_P1;SDS_P2;PMS_P1;PMS_P2;Temp;Humidity;BMP_temperature;BMP_pressure;BME280_temperature;BME280_humidity;BME280_pressure;Samples;Min_cycle;Max_cycle;Signal;HPM_P1;HPM_P2
2023/12/19 00:00:28;;;;;;;0.20;0.20;;;8.20;99.90;;;;;;5033517;28;20194;-80
2023/12/19 00:02:55;;;;;;;0.20;0.20;;;8.20;99.90;;;;;;5008232;28;20173;-81
2023/12/19 00:05:20;;;;;;;0.20;0.20;;;8.20;99.90;;;;;;5043181;28;20455;-79
2023/12/19 00:07:46;;;;;;;0.20;0.20;;;8.20;99.90;;;;;;5040846;28;20422;-80
2023/12/19 00:10:12;;;;;;;0.20;0.20;;;8.30;99.90;;;;;;5037400;28;20199;-79
2023/12/19 00:12:38;;;;;;;0.20;0.20;;;8.30;99.90;;;;;;5002227;28;20191;-79
2023/12/19 00:15:05;;;;;;;0.20;0.20;;;8.30;99.90;;;;;;5029155;28;20641;-81
2023/12/19 00:17:30;;;;;;;0.20;0.20;;;8.30;99.90;;;;;;5030478;28;20512;-81
2023/12/19 00:19:56;;;;;;;0.20;0.20;;;8.30;99.90;;;;;;5029197;28;21091;-81
2023/12/19 00:22:25;;;;;;;0.20;0.20;;;8.30;99.90;;;;;;5011859;28;20202;-79
2023/12/19 00:24:53;;;;;;;0.20;0.20;;;8.40;99.90;;;;;;5012619;28;20196;-79
2023/12/19 00:27:19;;;;;;;0.20;0.20;;;8.40;99.90;;;;;;5012510;28;20943;-82
2023/12/19 00:29:44;;;;;;;0.20;0.20;;;8.40;99.90;;;;;;5023835;28;20442;-81
2023/12/19 00:32:10;;;;;;;0.20;0.20;;;8.40;99.90;;;;;;5015501;28;20207;-81
2023/12/19 00:34:35;;;;;;;0.20;0.20;;;8.40;99.90;;;;;;4999590;28;20195;-80
2023/12/19 00:37:01;;;;;;;0.20;0.20;;;8.40;99.90;;;;;;5012350;28;20200;-79
2023/12/19 00:39:27;;;;;;;0.20;0.20;;;8.40;99.90;;;;;;5011809;28;20286;-80
2023/12/19 00:41:53;;;;;;;0.20;0.20;;;8.50;99.90;;;;;;5009973;28;20184;-81
2023/12/19 00:44:19;;;;;;;0.20;0.20;;;8.50;99.90;;;;;;4994892;28;20438;-81
2023/12/19 00:46:44;;;;;;;0.20;0.20;;;8.50;99.90;;;;;;5017307;28;20180;-79
2023/12/19 00:49:10;;;;;;;0.20;0.20;;;8.50;99.90;;;;;;5030740;28;20219;-81
2023/12/19 00:51:36;;;;;;;0.20;0.20;;;8.50;99.90;;;;;;4999346;28;20184;-81
2023/12/19 00:54:02;;;;;;;0.20;0.20;;;8.50;99.90;;;;;;5014655;28;20194;-81
2023/12/19 00:56:27;;;;;;;0.20;0.20;;;8.50;99.90;;;;;;5011448;28;20196;-81
2023/12/19 00:58:53;;;;;;;0.20;0.20;;;8.50;99.90;;;;;;5027418;28;20211;-81
2023/12/19 01:01:23;;;;;;;0.20;0.20;;;8.50;99.90;;;;;;5013806;28;20677;-79
2023/12/19 01:03:48;;;;;;;0.20;0.20;;;8.50;99.90;;;;;;5010268;28;20187;-81
2023/12/19 01:06:14;;;;;;;0.20;0.20;;;8.50;99.90;;;;;;5014011;28;20447;-81
2023/12/19 01:08:40;;;;;;;0.20;0.20;;;8.50;99.90;;;;;;5011441;28;20609;-81
2023/12/19 01:11:09;;;;;;;0.20;0.20;;;8.60;99.90;;;;;;5027192;28;20675;-80
2023/12/19 01:13:37;;;;;;;0.20;0.20;;;8.60;99.90;;;;;;5018647;28;20671;-81
2023/12/19 01:16:03;;;;;;;0.20;0.20;;;8.60;99.90;;;;;;5021888;28;20473;-81
2023/12/19 01:18:29;;;;;;;0.20;0.20;;;8.50;99.90;;;;;;4999928;28;20467;-81
2023/12/19 01:20:54;;;;;;;0.20;0.20;;;8.50;99.90;;;;;;5011830;28;20494;-81
2023/12/19 01:23:21;;;;;;;0.20;0.20;;;8.50;99.90;;;;;;5011017;28;20227;-81
2023/12/19 01:25:46;;;;;;;0.20;0.20;;;8.50;99.90;;;;;;5011552;28;20212;-81
2023/12/19 01:28:12;;;;;;;0.20;0.20;;;8.50;99.90;;;;;;5011800;28;20493;-78
2023/12/19 01:30:38;;;;;;;0.10;0.10;;;8.50;99.90;;;;;;5015677;28;20184;-81
2023/12/19 01:33:04;;;;;;;0.20;0.20;;;8.50;99.90;;;;;;5009291;28;20625;-81
2023/12/19 01:35:29;;;;;;;0.20;0.20;;;8.60;99.90;;;;;;5026253;28;20539;-81
2023/12/19 01:37:55;;;;;;;0.20;0.20;;;8.50;99.90;;;;;;5015541;28;20274;-82
2023/12/19 01:40:20;;;;;;;0.20;0.20;;;8.60;99.90;;;;;;5013101;28;20297;-81
2023/12/19 01:42:46;;;;;;;0.20;0.20;;;8.50;99.90;;;;;;5007337;28;20279;-81
2023/12/19 01:45:13;;;;;;;0.20;0.20;;;8.60;99.90;;;;;;4991987;28;20197;-81
2023/12/19 01:47:44;;;;;;;0.20;0.20;;;8.60;99.90;;;;;;5030770;28;20175;-81
2023/12/19 01:50:14;;;;;;;0.20;0.20;;;8.60;99.90;;;;;;4994178;28;20491;-79
2023/12/19 01:52:43;;;;;;;0.10;0.10;;;8.50;99.90;;;;;;5007418;28;20443;-79
2023/12/19 01:55:10;;;;;;;0.20;0.20;;;8.60;99.90;;;;;;5020959;28;20451;-81
2023/12/19 01:57:36;;;;;;;0.20;0.20;;;8.60;99.90;;;;;;4996082;28;20462;-81
2023/12/19 02:00:03;;;;;;;0.20;0.20;;;8.60;99.90;;;;;;5001910;28;21047;-81
2023/12/19 02:02:29;;;;;;;0.20;0.20;;;8.50;99.90;;;;;;5021112;28;20442;-81
2023/12/19 02:04:56;;;;;;;0.20;0.20;;;8.60;99.90;;;;;;5004923;28;20830;-79
2023/12/19 02:07:22;;;;;;;0.20;0.20;;;8.50;99.90;;;;;;4994762;28;20197;-81
2023/12/19 02:09:48;;;;;;;0.20;0.20;;;8.50;99.90;;;;;;5017505;28;20772;-78
2023/12/19 02:12:13;;;;;;;0.20;0.20;;;8.50;99.90;;;;;;5010960;28;20524;-79
2023/12/19 02:14:42;;;;;;;0.20;0.20;;;8.50;99.90;;;;;;5010823;28;20180;-79
2023/12/19 02:17:07;;;;;;;0.20;0.20;;;8.50;99.90;;;;;;5008839;28;20192;-78
2023/12/19 02:19:33;;;;;;;0.20;0.20;;;8.50;99.90;;;;;;4987831;28;20498;-81
2023/12/19 02:21:58;;;;;;;0.20;0.20;;;8.50;99.90;;;;;;5015081;28;20196;-81
2023/12/19 02:24:24;;;;;;;0.20;0.20;;;8.50;99.90;;;;;;5006594;28;20215;-81
2023/12/19 02:26:51;;;;;;;0.20;0.20;;;8.50;99.90;;;;;;5008042;28;20207;-81
2023/12/19 02:29:16;;;;;;;0.20;0.20;;;8.50;99.90;;;;;;5013635;28;20194;-78
2023/12/19 02:31:43;;;;;;;0.20;0.20;;;8.50;99.90;;;;;;5013310;28;20431;-81
2023/12/19 02:34:09;;;;;;;0.20;0.20;;;8.50;99.90;;;;;;4999797;28;20243;-78
2023/12/19 02:36:35;;;;;;;0.17;0.17;;;8.50;99.90;;;;;;5016757;28;20451;-78
2023/12/19 02:39:01;;;;;;;0.20;0.20;;;8.50;99.90;;;;;;5009908;28;20213;-78
2023/12/19 02:41:27;;;;;;;0.20;0.20;;;8.50;99.90;;;;;;5012483;28;20449;-80
2023/12/19 02:43:52;;;;;;;0.20;0.20;;;8.50;99.90;;;;;;5016070;28;20199;-80
2023/12/19 02:46:17;;;;;;;0.20;0.20;;;8.50;99.90;;;;;;5003487;28;20229;-80
2023/12/19 02:48:43;;;;;;;0.20;0.20;;;8.50;99.90;;;;;;5015576;28;20184;-80
2023/12/19 02:51:08;;;;;;;0.20;0.20;;;8.50;99.90;;;;;;5010029;28;20175;-82
2023/12/19 02:53:34;;;;;;;0.20;0.20;;;8.50;99.90;;;;;;5021020;28;20192;-82
2023/12/19 02:56:00;;;;;;;0.20;0.20;;;8.50;99.90;;;;;;5011815;28;20768;-82
2023/12/19 02:58:25;;;;;;;0.20;0.20;;;8.50;99.90;;;;;;5011010;28;22151;-80
2023/12/19 03:00:51;;;;;;;0.20;0.20;;;8.50;99.90;;;;;;5010086;28;20196;-80
2023/12/19 03:03:16;;;;;;;0.20;0.20;;;8.50;99.90;;;;;;5019217;28;20195;-80
2023/12/19 03:05:42;;;;;;;0.20;0.20;;;8.50;99.90;;;;;;5014511;28;20199;-80
2023/12/19 03:08:07;;;;;;;0.20;0.20;;;8.50;99.90;;;;;;5009970;28;20287;-80
2023/12/19 03:10:33;;;;;;;0.20;0.20;;;8.50;99.90;;;;;;4988533;28;20196;-80
2023/12/19 03:12:58;;;;;;;0.20;0.20;;;8.50;99.90;;;;;;5006340;28;20200;-80
2023/12/19 03:15:24;;;;;;;0.20;0.20;;;8.50;99.90;;;;;;5012152;28;20188;-80
2023/12/19 03:17:50;;;;;;;0.20;0.20;;;8.40;99.90;;;;;;4999212;28;20172;-80
2023/12/19 03:20:15;;;;;;;0.20;0.20;;;8.40;99.90;;;;;;5016661;28;20551;-80
2023/12/19 03:22:41;;;;;;;0.20;0.20;;;8.40;99.90;;;;;;5008426;28;20184;-80
2023/12/19 03:25:07;;;;;;;0.20;0.20;;;8.40;99.90;;;;;;5009425;28;20203;-80
2023/12/19 03:27:32;;;;;;;0.20;0.20;;;8.40;99.90;;;;;;5009968;28;20605;-81
2023/12/19 03:29:58;;;;;;;0.20;0.20;;;8.40;99.90;;;;;;5008917;28;20263;-80
2023/12/19 03:32:23;;;;;;;0.20;0.20;;;8.40;99.90;;;;;;5009876;28;20207;-79
2023/12/19 03:34:49;;;;;;;0.20;0.20;;;8.40;99.90;;;;;;5009355;28;20180;-79
2023/12/19 03:37:14;;;;;;;0.20;0.20;;;8.40;99.90;;;;;;4994097;28;20196;-80
2023/12/19 03:39:40;;;;;;;0.20;0.20;;;8.40;99.90;;;;;;5029449;28;20319;-80
2023/12/19 03:42:05;;;;;;;0.20;0.20;;;8.40;99.90;;;;;;5018850;28;20184;-79
2023/12/19 03:44:31;;;;;;;0.20;0.20;;;8.40;99.90;;;;;;4995239;28;20196;-79
2023/12/19 03:46:57;;;;;;;0.20;0.20;;;8.40;99.90;;;;;;5013299;28;20212;-79
2023/12/19 03:49:22;;;;;;;0.20;0.20;;;8.40;99.90;;;;;;5013253;28;20443;-79
2023/12/19 03:51:49;;;;;;;0.20;0.20;;;8.40;99.90;;;;;;5020017;28;20188;-79
2023/12/19 03:54:15;;;;;;;0.20;0.20;;;8.40;99.90;;;;;;5013724;28;20176;-78
2023/12/19 03:56:41;;;;;;;0.20;0.20;;;8.40;99.90;;;;;;5001695;28;20482;-79
2023/12/19 03:59:09;;;;;;;0.20;0.20;;;8.40;99.90;;;;;;5015640;28;20265;-80
2023/12/19 04:01:43;;;;;;;0.20;0.20;;;8.40;99.90;;;;;;5007856;28;20533;-78
2023/12/19 04:04:08;;;;;;;0.20;0.20;;;8.40;99.90;;;;;;5024582;28;20538;-79
2023/12/19 04:06:34;;;;;;;0.20;0.20;;;8.40;99.90;;;;;;5015680;28;20521;-79
2023/12/19 04:08:59;;;;;;;0.20;0.20;;;8.40;99.90;;;;;;5021514;28;20227;-81
2023/12/19 04:11:25;;;;;;;0.10;0.10;;;8.40;99.90;;;;;;5013668;28;20568;-79
2023/12/19 04:13:50;;;;;;;0.20;0.20;;;8.40;99.90;;;;;;4995609;28;20246;-79
2023/12/19 04:16:16;;;;;;;0.20;0.20;;;8.40;99.90;;;;;;5020887;28;20190;-80
2023/12/19 04:18:41;;;;;;;0.20;0.20;;;8.30;99.90;;;;;;5030788;28;20707;-79
2023/12/19 04:21:07;;;;;;;0.20;0.20;;;8.30;99.90;;;;;;5025902;28;20742;-81
2023/12/19 04:23:34;;;;;;;0.20;0.20;;;8.30;99.90;;;;;;5029916;28;20235;-79
2023/12/19 04:25:59;;;;;;;0.20;0.20;;;8.30;99.90;;;;;;5011396;28;20198;-79
2023/12/19 04:28:25;;;;;;;0.20;0.20;;;8.30;99.90;;;;;;5028993;28;20450;-79
2023/12/19 04:30:50;;;;;;;0.20;0.20;;;8.30;99.90;;;;;;5020673;28;20203;-79
2023/12/19 04:33:16;;;;;;;0.20;0.20;;;8.30;99.90;;;;;;5029718;28;20230;-79
2023/12/19 04:35:42;;;;;;;0.20;0.20;;;8.30;99.90;;;;;;5022873;28;20648;-81
2023/12/19 04:38:07;;;;;;;0.20;0.20;;;8.30;99.90;;;;;;5008917;28;20637;-79
2023/12/19 04:40:33;;;;;;;0.20;0.20;;;8.30;99.90;;;;;;5029820;28;20223;-81
2023/12/19 04:42:58;;;;;;;0.20;0.20;;;8.30;99.90;;;;;;5023618;28;20199;-80
2023/12/19 04:45:24;;;;;;;0.20;0.20;;;8.30;99.90;;;;;;5013144;28;20669;-79
2023/12/19 04:47:49;;;;;;;0.20;0.20;;;8.30;99.90;;;;;;5029470;28;20237;-79
2023/12/19 04:50:15;;;;;;;0.20;0.20;;;8.20;99.90;;;;;;5015656;28;20192;-79
2023/12/19 04:52:40;;;;;;;0.20;0.20;;;8.20;99.90;;;;;;5032532;28;20192;-79
2023/12/19 04:55:06;;;;;;;0.20;0.20;;;8.20;99.90;;;;;;5013019;28;20206;-79
2023/12/19 04:57:31;;;;;;;0.20;0.20;;;8.20;99.90;;;;;;5003435;28;20233;-79
2023/12/19 04:59:57;;;;;;;0.20;0.20;;;8.20;99.90;;;;;;5028023;28;20321;-79
2023/12/19 05:02:23;;;;;;;0.20;0.20;;;8.10;99.90;;;;;;5028110;28;20197;-81
2023/12/19 05:04:49;;;;;;;0.20;0.20;;;8.10;99.90;;;;;;5012898;28;20195;-81
2023/12/19 05:07:15;;;;;;;0.20;0.20;;;8.20;99.90;;;;;;5029992;28;20273;-81
2023/12/19 05:09:41;;;;;;;0.20;0.20;;;8.10;99.90;;;;;;5028910;28;20471;-79
2023/12/19 05:12:07;;;;;;;0.20;0.20;;;8.10;99.90;;;;;;5030143;28;20186;-78
2023/12/19 05:14:33;;;;;;;0.20;0.20;;;8.10;99.90;;;;;;5022881;28;20869;-80
2023/12/19 05:16:59;;;;;;;0.20;0.20;;;8.10;99.90;;;;;;5026755;28;20187;-79
2023/12/19 05:19:25;;;;;;;0.20;0.20;;;8.10;99.90;;;;;;5032512;28;20242;-78
2023/12/19 05:21:50;;;;;;;0.20;0.20;;;8.10;99.90;;;;;;5028977;28;20960;-80
2023/12/19 05:24:18;;;;;;;0.20;0.20;;;8.10;99.90;;;;;;5028762;28;20201;-78
2023/12/19 05:26:43;;;;;;;0.20;0.20;;;8.10;99.90;;;;;;5030000;28;20222;-78
2023/12/19 05:29:09;;;;;;;0.20;0.20;;;8.10;99.90;;;;;;5037767;28;20950;-81
2023/12/19 05:31:34;;;;;;;0.20;0.20;;;8.10;99.90;;;;;;5025624;28;20241;-80
2023/12/19 05:34:00;;;;;;;0.20;0.20;;;8.10;99.90;;;;;;4999032;28;20245;-80
2023/12/19 05:36:26;;;;;;;0.20;0.20;;;8.10;99.90;;;;;;5028853;28;20195;-79
2023/12/19 05:38:51;;;;;;;0.20;0.20;;;8.10;99.90;;;;;;5027419;28;20222;-78
2023/12/19 05:41:17;;;;;;;0.20;0.20;;;8.10;99.90;;;;;;5020963;28;20662;-80
2023/12/19 05:43:43;;;;;;;0.20;0.20;;;8.10;99.90;;;;;;5019847;28;20185;-80
2023/12/19 05:46:09;;;;;;;0.20;0.20;;;8.10;99.90;;;;;;5007968;28;20238;-81
2023/12/19 05:48:34;;;;;;;0.20;0.20;;;8.10;99.90;;;;;;5019233;28;20540;-78
2023/12/19 05:51:00;;;;;;;;;;;8.10;99.90;;;;;;5026467;28;20244;-78
2023/12/19 05:53:25;;;;;;;;;;;8.10;99.90;;;;;;5030343;28;19913;-79
2023/12/19 05:55:51;;;;;;;0.20;0.20;;;8.10;99.90;;;;;;5044000;28;19924;-81
2023/12/19 05:58:17;;;;;;;0.20;0.20;;;8.10;99.90;;;;;;5019999;28;20254;-78
2023/12/19 06:00:48;;;;;;;0.20;0.20;;;8.10;99.90;;;;;;5014600;28;20679;-80
2023/12/19 06:03:13;;;;;;;0.20;0.20;;;8.10;99.90;;;;;;5025168;28;20637;-77
2023/12/19 06:05:39;;;;;;;0.20;0.20;;;8.10;99.90;;;;;;5016858;28;20428;-78
2023/12/19 06:08:06;;;;;;;0.20;0.20;;;8.10;99.90;;;;;;5025715;28;20191;-81
2023/12/19 06:10:32;;;;;;;0.20;0.20;;;8.10;99.90;;;;;;5024938;28;20199;-79
2023/12/19 06:12:57;;;;;;;0.20;0.20;;;8.00;99.90;;;;;;5025135;28;21034;-81
2023/12/19 06:15:23;;;;;;;0.20;0.20;;;8.00;99.90;;;;;;5029136;28;20699;-81
2023/12/19 06:17:49;;;;;;;0.20;0.20;;;8.00;99.90;;;;;;5038492;28;20265;-81
2023/12/19 06:20:14;;;;;;;0.20;0.20;;;8.00;99.90;;;;;;5045750;28;20234;-81
2023/12/19 06:22:43;;;;;;;0.20;0.20;;;8.00;99.90;;;;;;5031022;28;20505;-78
2023/12/19 06:25:09;;;;;;;0.20;0.20;;;8.00;99.90;;;;;;5028474;28;20218;-79
2023/12/19 06:27:35;;;;;;;0.20;0.20;;;8.00;99.90;;;;;;5017160;28;21112;-78
2023/12/19 06:30:02;;;;;;;0.20;0.20;;;7.90;99.90;;;;;;5030121;28;20193;-81
2023/12/19 06:32:27;;;;;;;0.23;0.23;;;7.90;99.90;;;;;;5021775;28;20435;-77
2023/12/19 06:34:55;;;;;;;0.20;0.20;;;8.00;99.90;;;;;;5024766;28;20788;-80
2023/12/19 06:37:20;;;;;;;0.20;0.20;;;8.00;99.90;;;;;;5024323;28;20191;-80
2023/12/19 06:39:46;;;;;;;0.20;0.20;;;8.00;99.90;;;;;;5044197;28;20852;-80
2023/12/19 06:42:12;;;;;;;0.20;0.20;;;8.00;99.90;;;;;;5029053;28;20233;-80
2023/12/19 06:44:37;;;;;;;0.20;0.20;;;8.00;99.90;;;;;;5025008;28;20181;-78
2023/12/19 06:47:03;;;;;;;0.20;0.20;;;8.00;99.90;;;;;;5027780;28;20687;-80
2023/12/19 06:49:29;;;;;;;0.20;0.20;;;8.00;99.90;;;;;;5011909;28;20188;-80
2023/12/19 06:51:54;;;;;;;0.20;0.20;;;8.10;99.90;;;;;;5027475;28;20191;-80
2023/12/19 06:54:20;;;;;;;0.20;0.20;;;8.10;99.90;;;;;;5019824;28;20188;-80
2023/12/19 06:56:46;;;;;;;0.20;0.20;;;8.00;99.90;;;;;;5039536;28;20277;-80
2023/12/19 06:59:11;;;;;;;0.20;0.20;;;8.00;99.90;;;;;;5027537;28;20589;-77
2023/12/19 07:01:37;;;;;;;0.20;0.20;;;8.00;99.90;;;;;;5030353;28;20648;-79
2023/12/19 07:04:03;;;;;;;0.20;0.20;;;8.00;99.90;;;;;;5030563;28;20262;-78
2023/12/19 07:06:29;;;;;;;0.20;0.20;;;8.00;99.90;;;;;;5012055;28;20188;-79
2023/12/19 07:08:55;;;;;;;0.20;0.20;;;8.00;99.90;;;;;;5000290;28;20470;-79
2023/12/19 07:11:21;;;;;;;0.20;0.20;;;8.00;99.90;;;;;;5000429;28;20462;-79
2023/12/19 07:13:47;;;;;;;0.20;0.20;;;8.00;99.90;;;;;;5024393;28;20344;-79
2023/12/19 07:16:14;;;;;;;0.20;0.20;;;8.00;99.90;;;;;;5010964;28;20211;-79
2023/12/19 07:18:40;;;;;;;0.20;0.20;;;7.90;99.90;;;;;;5031423;28;20219;-79
2023/12/19 07:21:06;;;;;;;0.20;0.20;;;8.00;99.90;;;;;;4986578;28;21003;-79
2023/12/19 07:23:32;;;;;;;0.20;0.20;;;7.80;99.90;;;;;;5007630;28;20427;-80
2023/12/19 07:25:57;;;;;;;0.20;0.20;;;7.80;99.90;;;;;;5013034;28;20441;-79
2023/12/19 07:28:23;;;;;;;0.20;0.20;;;7.80;99.90;;;;;;5012663;28;20202;-81
2023/12/19 07:30:49;;;;;;;0.20;0.20;;;7.80;99.90;;;;;;4993888;28;20591;-80
2023/12/19 07:33:15;;;;;;;0.20;0.20;;;7.80;99.90;;;;;;5010742;28;20565;-80
2023/12/19 07:35:41;;;;;;;0.20;0.20;;;7.70;99.90;;;;;;4994409;28;21015;-80
2023/12/19 07:38:07;;;;;;;0.30;0.30;;;7.70;99.90;;;;;;5011128;28;20184;-80
2023/12/19 07:40:32;;;;;;;0.20;0.20;;;7.70;99.90;;;;;;4994317;28;20236;-78
2023/12/19 07:42:58;;;;;;;0.20;0.20;;;7.70;99.90;;;;;;5011875;28;20224;-79
2023/12/19 07:45:23;;;;;;;0.20;0.20;;;7.60;99.90;;;;;;4993274;28;20271;-78
2023/12/19 07:47:49;;;;;;;0.20;0.20;;;7.60;99.90;;;;;;4998884;28;20220;-81
2023/12/19 07:50:14;;;;;;;0.20;0.20;;;7.60;99.90;;;;;;5007444;28;20276;-77
2023/12/19 07:52:40;;;;;;;0.20;0.20;;;7.60;99.90;;;;;;5009305;28;20291;-78
2023/12/19 07:55:09;;;;;;;0.20;0.20;;;7.60;99.90;;;;;;5004906;28;20188;-79
2023/12/19 07:57:37;;;;;;;0.20;0.20;;;7.60;99.90;;;;;;4986733;28;20191;-78
2023/12/19 08:00:03;;;;;;;0.20;0.20;;;7.50;99.90;;;;;;5010564;28;20918;-79
2023/12/19 08:02:29;;;;;;;0.30;0.30;;;7.60;99.90;;;;;;4995217;28;20785;-78
2023/12/19 08:04:54;;;;;;;0.20;0.20;;;7.50;99.90;;;;;;5009615;28;20452;-78
2023/12/19 08:07:20;;;;;;;0.20;0.20;;;7.50;99.90;;;;;;5012003;28;20196;-78
2023/12/19 08:09:45;;;;;;;0.20;0.20;;;7.50;99.90;;;;;;5002996;28;20228;-78
2023/12/19 08:12:11;;;;;;;0.20;0.20;;;7.50;99.90;;;;;;5012317;28;20199;-78
2023/12/19 08:14:36;;;;;;;0.20;0.20;;;7.50;99.90;;;;;;5015047;28;20802;-78
2023/12/19 08:17:02;;;;;;;0.20;0.20;;;7.40;99.90;;;;;;5011895;28;20713;-78
2023/12/19 08:19:28;;;;;;;0.20;0.20;;;7.40;99.90;;;;;;4999408;28;20239;-78
2023/12/19 08:21:54;;;;;;;0.20;0.20;;;7.40;99.90;;;;;;5030095;28;20199;-78
2023/12/19 08:24:21;;;;;;;0.20;0.20;;;7.40;99.90;;;;;;5031233;28;20780;-78
2023/12/19 08:26:48;;;;;;;0.20;0.20;;;7.40;99.90;;;;;;5014446;28;20474;-80
2023/12/19 08:29:14;;;;;;;0.20;0.20;;;7.30;99.90;;;;;;5011993;28;20829;-77
2023/12/19 08:31:40;;;;;;;0.20;0.20;;;7.40;99.90;;;;;;5031858;28;20799;-80
2023/12/19 08:34:06;;;;;;;0.30;0.30;;;7.30;99.90;;;;;;5032152;28;20421;-80
2023/12/19 08:36:32;;;;;;;0.23;0.23;;;7.30;99.90;;;;;;5030914;28;20187;-80
2023/12/19 08:38:57;;;;;;;0.20;0.20;;;7.30;99.90;;;;;;5029917;28;20481;-80
2023/12/19 08:41:24;;;;;;;0.20;0.20;;;7.30;99.90;;;;;;5030045;28;20194;-80
2023/12/19 08:43:49;;;;;;;0.20;0.20;;;7.30;99.90;;;;;;5009755;28;20270;-80
2023/12/19 08:46:18;;;;;;;0.20;0.20;;;7.30;99.90;;;;;;5027948;28;25122;-81
2023/12/19 08:48:44;;;;;;;0.20;0.20;;;7.30;99.90;;;;;;5026464;28;20653;-80
2023/12/19 08:51:10;;;;;;;0.20;0.20;;;7.30;99.90;;;;;;5011786;28;20411;-80
2023/12/19 08:53:36;;;;;;;0.20;0.20;;;7.30;99.90;;;;;;5018802;28;20187;-80
2023/12/19 08:56:02;;;;;;;0.20;0.20;;;7.30;99.90;;;;;;5041548;28;20284;-80
2023/12/19 08:58:27;;;;;;;0.20;0.20;;;7.20;99.90;;;;;;5028988;28;20960;-81
2023/12/19 09:00:54;;;;;;;0.20;0.20;;;7.30;99.90;;;;;;5013443;28;20180;-80
2023/12/19 09:03:19;;;;;;;0.20;0.20;;;7.30;99.90;;;;;;5031333;28;20274;-80
2023/12/19 09:05:46;;;;;;;0.20;0.20;;;7.30;99.90;;;;;;5029630;28;20557;-80
2023/12/19 09:08:12;;;;;;;0.20;0.20;;;7.30;99.90;;;;;;5028724;28;20263;-79
2023/12/19 09:10:38;;;;;;;0.20;0.20;;;7.30;99.90;;;;;;5025249;28;20424;-80
2023/12/19 09:13:05;;;;;;;0.20;0.20;;;7.30;99.90;;;;;;5022154;28;20485;-80
2023/12/19 09:15:30;;;;;;;0.20;0.20;;;7.30;99.90;;;;;;5021905;28;20938;-80
2023/12/19 09:17:56;;;;;;;0.30;0.30;;;7.20;99.90;;;;;;5018471;28;20483;-80
2023/12/19 09:20:23;;;;;;;0.20;0.20;;;7.30;99.90;;;;;;5025183;28;20301;-80
2023/12/19 09:22:50;;;;;;;0.30;0.30;;;7.30;99.90;;;;;;5018165;28;21059;-79
2023/12/19 09:25:15;;;;;;;0.30;0.30;;;7.30;99.90;;;;;;5028248;28;20517;-80
2023/12/19 09:27:42;;;;;;;0.20;0.20;;;7.20;99.90;;;;;;5023690;28;20434;-79
2023/12/19 09:30:11;;;;;;;0.20;0.20;;;7.30;99.90;;;;;;5029142;28;20195;-79
2023/12/19 09:32:39;;;;;;;0.20;0.20;;;7.30;99.90;;;;;;5028489;28;20430;-80
2023/12/19 09:35:06;;;;;;;0.20;0.20;;;7.30;99.90;;;;;;5029318;28;20444;-79
2023/12/19 09:37:31;;;;;;;0.20;0.20;;;7.30;99.90;;;;;;5020342;28;20478;-80
2023/12/19 09:39:57;;;;;;;0.20;0.20;;;7.30;99.90;;;;;;5017664;28;20504;-80
2023/12/19 09:42:23;;;;;;;0.20;0.20;;;7.30;99.90;;;;;;5001875;28;20203;-80
2023/12/19 09:44:49;;;;;;;0.20;0.20;;;7.30;99.90;;;;;;5029637;28;20183;-79
2023/12/19 09:47:25;;;;;;;0.30;0.30;;;7.30;99.90;;;;;;5028362;28;20183;-80
2023/12/19 09:50:03;;;;;;;0.20;0.20;;;7.30;99.90;;;;;;5030283;28;20433;-79
2023/12/19 09:52:30;;;;;;;0.20;0.20;;;7.30;99.90;;;;;;5025743;28;20457;-79
2023/12/19 09:54:56;;;;;;;0.20;0.20;;;7.30;99.90;;;;;;5027317;28;20613;-77
2023/12/19 09:57:23;;;;;;;0.20;0.20;;;7.40;99.90;;;;;;5008720;28;21001;-79
2023/12/19 09:59:50;;;;;;;0.30;0.30;;;7.30;99.90;;;;;;5007489;28;20319;-77
2023/12/19 10:02:17;;;;;;;0.20;0.20;;;7.30;99.90;;;;;;5028955;28;20518;-79
2023/12/19 10:04:43;;;;;;;0.23;0.23;;;7.30;99.90;;;;;;5030608;28;20441;-80
2023/12/19 10:07:08;;;;;;;0.40;0.40;;;7.30;99.90;;;;;;5026994;28;20479;-79
2023/12/19 10:09:34;;;;;;;0.30;0.30;;;7.30;99.90;;;;;;5012092;28;20536;-78
2023/12/19 10:12:08;;;;;;;0.30;0.30;;;7.30;99.90;;;;;;5029172;28;20183;-78
2023/12/19 10:14:34;;;;;;;0.40;0.40;;;7.40;99.90;;;;;;5022108;28;20268;-79
2023/12/19 10:17:01;;;;;;;0.50;0.50;;;7.30;99.90;;;;;;5007468;28;20474;-79
2023/12/19 10:19:28;;;;;;;0.40;0.40;;;7.30;99.90;;;;;;5026116;28;20569;-79
2023/12/19 10:22:16;;;;;;;0.40;0.40;;;7.30;99.90;;;;;;5028622;28;20791;-80
2023/12/19 10:24:42;;;;;;;0.40;0.40;;;7.30;99.90;;;;;;5028765;28;20414;-80
2023/12/19 10:27:08;;;;;;;0.40;0.40;;;7.40;99.90;;;;;;5029053;28;20767;-79
2023/12/19 10:29:36;;;;;;;0.50;0.50;;;7.30;99.90;;;;;;5029393;28;20454;-81
2023/12/19 10:32:20;;;;;;;0.50;0.50;;;7.30;99.90;;;;;;5028564;28;20195;-80
2023/12/19 10:34:56;;;;;;;0.50;0.50;;;7.30;99.90;;;;;;5023066;28;20957;-79
2023/12/19 10:37:26;;;;;;;0.57;0.57;;;7.30;99.90;;;;;;5028671;28;20413;-80
2023/12/19 10:40:09;;;;;;;0.90;0.90;;;7.30;99.90;;;;;;5011886;28;21202;-80
2023/12/19 10:42:35;;;;;;;0.93;0.93;;;7.40;99.90;;;;;;5029016;28;20463;-80
2023/12/19 10:45:03;;;;;;;0.50;0.50;;;7.30;99.90;;;;;;5010960;28;20466;-78
2023/12/19 10:47:29;;;;;;;0.50;0.50;;;7.40;99.90;;;;;;5029536;28;20541;-78
2023/12/19 10:49:54;;;;;;;0.60;0.60;;;7.40;99.90;;;;;;5027882;28;20457;-80
2023/12/19 10:52:23;;;;;;;0.50;0.50;;;7.40;99.90;;;;;;5029580;28;20180;-78
2023/12/19 10:54:54;;;;;;;0.53;0.53;;;7.40;99.90;;;;;;5029177;28;20258;-77
2023/12/19 10:57:21;;;;;;;0.50;0.50;;;7.40;99.90;;;;;;5028078;28;20414;-80
2023/12/19 11:00:17;;;;;;;0.50;0.50;;;7.40;99.90;;;;;;5027966;28;20474;-78
2023/12/19 11:02:53;;;;;;;0.80;0.80;;;7.40;99.90;;;;;;5010189;28;20435;-78
2023/12/19 11:05:43;;;;;;;0.50;0.50;;;7.40;99.90;;;;;;5003531;28;20448;-80
2023/12/19 11:08:15;;;;;;;0.60;0.60;;;7.40;99.90;;;;;;5026424;28;20442;-79
2023/12/19 11:10:45;;;;;;;0.67;0.67;;;7.40;99.90;;;;;;5029312;28;20517;-80
2023/12/19 11:13:12;;;;;;;0.50;0.50;;;7.40;99.90;;;;;;5028401;28;20422;-81
2023/12/19 11:15:49;;;;;;;0.50;0.50;;;7.40;99.90;;;;;;5011086;28;20998;-80
2023/12/19 11:18:25;;;;;;;0.60;0.60;;;7.40;99.90;;;;;;5028319;28;20513;-80
2023/12/19 11:21:00;;;;;;;0.83;0.83;;;7.40;99.90;;;;;;5014578;28;20482;-80
2023/12/19 11:24:02;;;;;;;0.90;0.90;;;7.40;99.90;;;;;;5030447;28;20422;-80
2023/12/19 11:26:41;;;;;;;0.70;0.70;;;7.40;99.90;;;;;;5022941;28;20452;-83
2023/12/19 11:29:06;;;;;;;0.90;0.90;;;7.50;99.90;;;;;;5044637;28;20417;-85
2023/12/19 11:31:36;;;;;;;0.60;0.60;;;7.40;99.90;;;;;;5013388;28;20442;-84
2023/12/19 11:34:23;;;;;;;0.70;0.70;;;7.40;99.90;;;;;;5031496;28;20184;-85
2023/12/19 11:37:02;;;;;;;1.47;1.37;;;7.50;99.90;;;;;;5023433;28;20424;-84
2023/12/19 11:39:30;;;;;;;0.50;0.50;;;7.50;99.90;;;;;;5044309;28;20577;-83
2023/12/19 11:41:56;;;;;;;0.60;0.60;;;7.50;99.90;;;;;;5014606;28;20497;-84
2023/12/19 11:44:36;;;;;;;0.60;0.60;;;7.50;99.90;;;;;;5023717;28;20993;-82
2023/12/19 11:47:15;;;;;;;0.60;0.60;;;7.50;99.90;;;;;;5027734;28;20470;-83
2023/12/19 11:49:41;;;;;;;0.60;0.60;;;7.50;99.90;;;;;;5025040;28;20524;-82
2023/12/19 11:52:06;;;;;;;0.90;0.90;;;7.50;99.90;;;;;;5029200;28;20877;-82
2023/12/19 11:54:32;;;;;;;0.50;0.50;;;7.50;99.90;;;;;;5027764;28;20231;-84
2023/12/19 11:57:00;;;;;;;0.60;0.60;;;7.40;99.90;;;;;;5027780;28;20191;-83
2023/12/19 11:59:48;;;;;;;0.50;0.50;;;7.40;99.90;;;;;;5014267;28;20267;-81
2023/12/19 12:02:29;;;;;;;0.50;0.50;;;7.50;99.90;;;;;;5031739;28;20479;-84
2023/12/19 12:05:15;;;;;;;0.70;0.70;;;7.50;99.90;;;;;;5032022;28;20422;-84
2023/12/19 12:07:48;;;;;;;0.57;0.57;;;7.50;99.90;;;;;;5029987;28;20446;-85
2023/12/19 12:10:20;;;;;;;0.93;0.93;;;7.40;99.90;;;;;;5043147;28;21002;-85
2023/12/19 12:12:46;;;;;;;0.50;0.50;;;7.40;99.90;;;;;;5021728;28;20437;-86
2023/12/19 12:15:14;;;;;;;0.60;0.60;;;7.40;99.90;;;;;;5038789;28;20432;-86
2023/12/19 12:17:40;;;;;;;2.40;0.70;;;7.40;99.90;;;;;;5035901;28;20279;-84
2023/12/19 12:20:06;;;;;;;0.60;0.60;;;7.40;99.90;;;;;;5032823;28;20478;-85
2023/12/19 12:22:32;;;;;;;0.50;0.50;;;7.40;99.90;;;;;;5039108;28;20440;-85
2023/12/19 12:24:59;;;;;;;1.13;1.13;;;7.40;99.90;;;;;;5031489;28;20942;-83
2023/12/19 12:27:25;;;;;;;0.60;0.60;;;7.40;99.90;;;;;;5014725;28;20487;-83
2023/12/19 12:29:51;;;;;;;0.97;0.90;;;7.50;99.90;;;;;;5034209;28;21038;-81
2023/12/19 12:32:17;;;;;;;0.63;0.63;;;7.40;99.90;;;;;;5039530;28;20520;-85
2023/12/19 12:34:44;;;;;;;0.70;0.70;;;7.40;99.90;;;;;;5044473;28;20270;-83
2023/12/19 12:37:10;;;;;;;0.90;0.90;;;7.40;99.90;;;;;;5024233;28;20184;-83
2023/12/19 12:39:35;;;;;;;0.93;0.93;;;7.40;99.90;;;;;;5034598;28;20491;-84
2023/12/19 12:42:03;;;;;;;0.60;0.60;;;7.40;99.90;;;;;;5036372;28;20262;-84
2023/12/19 12:44:28;;;;;;;0.60;0.60;;;7.40;99.90;;;;;;5040198;28;20186;-84
2023/12/19 12:46:54;;;;;;;0.50;0.50;;;7.40;99.90;;;;;;5042959;28;20775;-84
2023/12/19 12:49:19;;;;;;;0.70;0.70;;;7.40;99.90;;;;;;5032342;28;20197;-84
2023/12/19 12:51:46;;;;;;;0.77;0.60;;;7.40;99.90;;;;;;5027086;28;20256;-83
2023/12/19 12:54:17;;;;;;;0.70;0.70;;;7.40;99.90;;;;;;5036873;28;20659;-84
2023/12/19 12:56:42;;;;;;;0.60;0.60;;;7.40;99.90;;;;;;5033829;28;20430;-83